Time;durP1;ratioP1;P1;durP2;ratioP2;P2;SDS_P1;SDS_P2;PMS_P1;PMS_P2;Temp;Humidity;BMP_temperature;BMP_pressure;BME280_temperature;BME280_humidity;BME280_pressure;Samples;Min_cycle;Max_cycle;Signal;HPM_P1;HPM_P2
2022/09/02 00:00:48;;;;;;;;;8.33;8.33;;;;;22.63;70.45;100160.41;5007528;28;45245;-69
2022/09/02 00:03:14;;;;;;;;;6.67;6.67;;;;;22.56;70.20;100144.63;5009869;28;45525;-75
2022/09/02 00:05:41;;;;;;;;;7.67;7.00;;;;;22.55;70.18;100138.44;5018217;28;46510;-74
2022/09/02 00:08:07;;;;;;;;;8.33;8.00;;;;;22.58;70.04;100140.13;5013330;28;45329;-74
2022/09/02 00:10:36;;;;;;;;;9.33;8.00;;;;;22.66;70.66;100151.50;5018783;28;45345;-75
2022/09/02 00:13:02;;;;;;;;;10.00;7.67;;;;;22.64;70.14;100146.19;5017920;28;45338;-75
2022/09/02 00:15:28;;;;;;;;;9.33;7.33;;;;;22.64;71.01;100134.66;5014753;28;45509;-74
2022/09/02 00:17:54;;;;;;;;;7.00;6.67;;;;;22.50;70.88;100124.41;5005477;28;45610;-75
2022/09/02 00:20:20;;;;;;;;;8.00;7.67;;;;;22.39;70.36;100126.44;5031149;28;45327;-72
2022/09/02 00:22:45;;;;;;;;;9.00;9.00;;;;;22.49;71.21;100145.72;5013201;28;45336;-73
2022/09/02 00:25:11;;;;;;;;;6.33;6.33;;;;;22.39;71.98;100143.28;5007601;28;45427;-75
2022/09/02 00:27:37;;;;;;;;;8.00;8.00;;;;;22.28;71.63;100134.69;5018328;28;45643;-75
2022/09/02 00:30:04;;;;;;;;;8.00;8.00;;;;;22.20;71.87;100120.66;5013921;28;45838;-69
2022/09/02 00:32:30;;;;;;;;;9.00;9.00;;;;;22.10;72.13;100098.72;5017826;28;45534;-69
2022/09/02 00:34:57;;;;;;;;;9.67;9.33;;;;;22.26;72.16;100117.88;5017455;28;45485;-74
2022/09/02 00:37:25;;;;;;;;;7.00;7.00;;;;;22.23;72.30;100128.59;5009471;28;45476;-75
2022/09/02 00:39:52;;;;;;;;;8.00;8.00;;;;;22.31;71.79;100121.31;5017873;28;45537;-75
2022/09/02 00:42:19;;;;;;;;;10.67;9.00;;;;;22.34;72.30;100115.03;5011566;28;45609;-73
2022/09/02 00:44:45;;;;;;;;;8.33;8.00;;;;;22.38;72.31;100128.25;5017364;28;47140;-72
2022/09/02 00:47:11;;;;;;;;;9.33;8.33;;;;;22.41;71.77;100133.47;5005940;28;45543;-74
2022/09/02 00:49:40;;;;;;;;;8.00;8.00;;;;;22.47;72.00;100124.47;5018067;28;45423;-75
2022/09/02 00:52:19;;;;;;;;;10.00;7.00;;;;;22.33;72.05;100102.66;5018284;28;45602;-75
2022/09/02 00:54:51;;;;;;;;;12.00;10.00;;;;;22.32;73.23;100106.22;5018156;28;45789;-74
2022/09/02 00:57:22;;;;;;;;;9.00;9.00;;;;;22.29;72.52;100114.28;5033702;28;45269;-70
2022/09/02 00:59:56;;;;;;;;;11.33;9.33;;;;;22.36;73.80;100131.84;5018608;28;45299;-70
2022/09/02 01:02:24;;;;;;;;;12.67;11.00;;;;;22.26;73.72;100115.22;5016658;28;45573;-72
2022/09/02 01:04:50;;;;;;;;;9.00;8.67;;;;;22.28;72.63;100099.22;5016612;28;46725;-74
2022/09/02 01:07:16;;;;;;;;;10.00;8.67;;;;;22.32;73.22;100115.09;5033649;28;45385;-71
2022/09/02 01:09:42;;;;;;;;;9.33;8.00;;;;;22.30;73.64;100114.22;5018707;28;45309;-75
2022/09/02 01:12:08;;;;;;;;;10.00;10.00;;;;;22.15;73.45;100094.19;5033784;28;45468;-74
2022/09/02 01:14:34;;;;;;;;;8.67;8.33;;;;;22.19;72.36;100101.16;5017368;28;46054;-75
2022/09/02 01:17:01;;;;;;;;;9.00;8.33;;;;;21.98;72.62;100080.41;5017791;28;45403;-72
2022/09/02 01:19:44;;;;;;;;;10.00;9.33;;;;;21.82;73.27;100072.81;5017808;28;45470;-75
2022/09/02 01:22:24;;;;;;;;;10.00;9.67;;;;;21.94;74.08;100102.69;5017777;28;45449;-75
2022/09/02 01:24:51;;;;;;;;;10.00;9.00;;;;;21.84;73.85;100091.38;5014943;28;45511;-69
2022/09/02 01:27:22;;;;;;;;;8.00;8.00;;;;;21.89;74.21;100104.59;5001916;28;45510;-69
2022/09/02 01:29:53;;;;;;;;;10.00;9.00;;;;;21.87;73.92;100104.63;5028931;28;45491;-74
2022/09/02 01:32:20;;;;;;;;;9.33;8.33;;;;;21.75;75.70;100094.28;5011568;28;45610;-74
2022/09/02 01:34:46;;;;;;;;;9.00;9.00;;;;;21.82;75.60;100103.84;5017128;28;45534;-75
2022/09/02 01:37:12;;;;;;;;;9.00;8.33;;;;;21.78;74.83;100083.56;5017758;28;45425;-75
2022/09/02 01:39:38;;;;;;;;;10.33;9.67;;;;;21.77;74.17;100081.81;5017007;28;45515;-74
2022/09/02 01:42:03;;;;;;;;;9.33;9.00;;;;;21.90;74.41;100091.25;5016257;28;46012;-75
2022/09/02 01:44:29;;;;;;;;;10.33;9.67;;;;;21.83;74.28;100079.88;5017610;28;46377;-74
2022/09/02 01:46:55;;;;;;;;;5.00;4.67;;;;;21.86;74.11;100078.94;5017748;28;45493;-73
2022/09/02 01:49:21;;;;;;;;;9.67;9.00;;;;;21.90;73.94;100082.38;5017225;28;45195;-74
2022/09/02 01:51:47;;;;;;;;;11.00;9.67;;;;;21.85;74.57;100093.16;5017297;28;46020;-69
2022/09/02 01:54:13;;;;;;;;;8.33;8.33;;;;;21.84;74.81;100083.41;5017023;28;46060;-73
2022/09/02 01:56:38;;;;;;;;;8.67;8.00;;;;;21.89;74.82;100089.50;5016072;28;45583;-74
2022/09/02 01:59:06;;;;;;;;;9.00;8.00;;;;;21.92;74.69;100093.88;5016232;28;45951;-75
2022/09/02 02:01:33;;;;;;;;;10.67;9.33;;;;;21.90;74.51;100093.91;5017296;28;45242;-73
2022/09/02 02:04:00;;;;;;;;;8.00;8.00;;;;;21.95;75.35;100115.94;5016632;28;46151;-69
2022/09/02 02:06:26;;;;;;;;;11.67;10.33;;;;;21.87;75.35;100101.97;5016842;28;45494;-74
2022/09/02 02:08:52;;;;;;;;;7.67;7.67;;;;;21.78;75.17;100083.56;5017622;28;45356;-74
2022/09/02 02:11:22;;;;;;;;;7.00;7.00;;;;;21.92;75.98;100108.03;5017309;28;45466;-75
2022/09/02 02:13:48;;;;;;;;;9.00;9.00;;;;;21.88;75.52;100098.38;5032420;28;45741;-73
2022/09/02 02:16:14;;;;;;;;;9.00;9.00;;;;;21.36;75.16;100009.19;5015185;28;45419;-75
2022/09/02 02:18:40;;;;;;;;;10.67;10.00;;;;;21.90;74.78;100093.03;5016403;28;45428;-75
2022/09/02 02:21:05;;;;;;;;;10.00;9.00;;;;;21.81;74.73;100072.88;5015059;28;45554;-75
2022/09/02 02:23:31;;;;;;;;;7.67;7.00;;;;;21.89;74.44;100094.81;5016320;28;46249;-69
2022/09/02 02:25:56;;;;;;;;;8.67;8.67;;;;;21.77;75.51;100074.72;5016748;28;45564;-69
2022/09/02 02:28:22;;;;;;;;;9.33;9.00;;;;;21.84;75.77;100097.59;5016596;28;45496;-75
2022/09/02 02:30:48;;;;;;;;;9.67;9.67;;;;;21.79;75.27;100093.28;5016743;28;45523;-72
2022/09/02 02:33:14;;;;;;;;;9.00;9.00;;;;;21.86;76.01;100094.88;5015199;28;47803;-75
2022/09/02 02:35:40;;;;;;;;;8.33;7.67;;;;;21.77;75.52;100079.16;5031828;28;45573;-72
2022/09/02 02:38:05;;;;;;;;;11.33;11.00;;;;;21.82;75.93;100090.53;5016607;28;45549;-75
2022/09/02 02:40:31;;;;;;;;;9.33;8.67;;;;;21.68;76.23;100061.63;5017092;28;45320;-69
2022/09/02 02:42:57;;;;;;;;;11.67;8.67;;;;;21.96;76.04;100104.38;5016479;28;45457;-69
2022/09/02 02:45:23;;;;;;;;;9.67;9.67;;;;;21.93;75.38;100107.13;5014953;28;45466;-69
2022/09/02 02:47:50;;;;;;;;;11.33;9.67;;;;;21.90;75.39;100096.56;5014996;28;45514;-76
2022/09/02 02:50:18;;;;;;;;;10.33;9.00;;;;;21.85;75.44;100093.16;5016630;28;45404;-68
2022/09/02 02:52:44;;;;;;;;;10.67;10.67;;;;;;;;5000655;28;46131;-75
2022/09/02 02:55:12;;;;;;;;;10.00;10.00;;;;;21.89;76.02;100100.16;5015996;28;45478;-74
2022/09/02 02:57:41;;;;;;;;;9.33;9.33;;;;;21.93;76.05;100107.13;5016074;28;45482;-70
2022/09/02 03:00:22;;;;;;;;;14.50;13.50;;;;;21.92;75.60;100096.53;5015951;28;45372;-74
2022/09/02 03:02:48;;;;;;;;;11.33;10.00;;;;;21.89;74.90;100085.97;5014892;28;45495;-73
2022/09/02 03:05:15;;;;;;;;;10.00;9.67;;;;;21.98;75.06;100105.22;5016017;28;45438;-75
2022/09/02 03:07:41;;;;;;;;;9.00;8.33;;;;;21.92;74.99;100097.38;5016343;28;45487;-75
2022/09/02 03:10:09;;;;;;;;;11.00;11.00;;;;;21.79;75.02;100099.47;5014785;28;45383;-75
2022/09/02 03:12:37;;;;;;;;;10.67;10.00;;;;;21.57;75.59;100083.16;5015794;28;46051;-75
2022/09/02 03:15:03;;;;;;;;;11.00;10.00;;;;;21.63;75.46;100098.09;5015660;28;45451;-75
2022/09/02 03:17:29;;;;;;;;;9.33;8.33;;;;;21.60;75.73;100106.97;5015871;28;45285;-74
2022/09/02 03:19:56;;;;;;;;;9.33;9.33;;;;;21.34;76.66;100067.69;5015451;28;45601;-75
2022/09/02 03:22:22;;;;;;;;;9.00;9.00;;;;;21.57;76.68;100108.88;5015655;28;46383;-71
2022/09/02 03:24:47;;;;;;;;;8.67;8.67;;;;;21.47;76.38;100086.94;5014266;28;45473;-75
2022/09/02 03:27:13;;;;;;;;;10.67;9.33;;;;;21.58;76.44;100090.19;5014613;28;45507;-75
2022/09/02 03:29:38;;;;;;;;;9.33;8.67;;;;;21.59;76.33;100091.09;5015440;28;45432;-75
2022/09/02 03:32:04;;;;;;;;;11.67;10.00;;;;;21.53;76.71;100084.13;5015299;28;45438;-74
2022/09/02 03:34:31;;;;;;;;;8.00;8.00;;;;;21.59;76.99;100105.25;5013216;28;45557;-75
2022/09/02 03:36:57;;;;;;;;;9.00;9.00;;;;;21.51;76.94;100079.78;5015762;28;45506;-74
2022/09/02 03:39:22;;;;;;;;;9.00;8.33;;;;;21.56;76.12;100075.22;5015825;28;45628;-74
2022/09/02 03:41:49;;;;;;;;;11.33;9.67;;;;;21.63;76.09;100085.66;5015224;28;45557;-69
2022/09/02 03:44:14;;;;;;;;;8.33;8.00;;;;;21.71;75.44;100087.28;5015311;28;45573;-75
2022/09/02 03:46:40;;;;;;;;;8.00;8.00;;;;;21.64;75.72;100082.09;5015764;28;45412;-75
2022/09/02 03:49:06;;;;;;;;;8.00;8.00;;;;;21.62;76.38;100085.69;5015218;28;45398;-75
2022/09/02 03:51:31;;;;;;;;;9.33;8.67;;;;;21.57;75.88;100074.31;5014515;28;45626;-75
2022/09/02 03:53:57;;;;;;;;;8.67;8.67;;;;;21.63;76.17;100082.13;5010335;28;45450;-75
2022/09/02 03:56:24;;;;;;;;;7.67;7.67;;;;;21.52;75.78;100074.41;5005505;28;45382;-74
2022/09/02 03:58:51;;;;;;;;;8.00;7.00;;;;;21.61;75.65;100091.94;5018964;28;45458;-75
2022/09/02 04:01:21;;;;;;;;;7.67;7.00;;;;;21.61;75.80;100090.16;5018629;28;46116;-75
2022/09/02 04:03:47;;;;;;;;;9.00;8.00;;;;;21.58;75.95;100076.91;5017865;28;45374;-75
2022/09/02 04:06:15;;;;;;;;;8.33;7.67;;;;;21.71;75.79;100081.97;5019086;28;45498;-75
2022/09/02 04:08:43;;;;;;;;;8.33;8.33;;;;;21.73;75.64;100088.13;5017666;28;45635;-75
2022/09/02 04:11:11;;;;;;;;;8.33;8.00;;;;;21.65;75.24;100065.25;5018391;28;45461;-73
2022/09/02 04:13:38;;;;;;;;;8.67;8.67;;;;;21.53;76.02;100065.53;5018571;28;45415;-75
2022/09/02 04:16:08;;;;;;;;;7.00;6.67;;;;;21.53;75.51;100083.25;5013651;28;45538;-75
2022/09/02 04:18:34;;;;;;;;;9.00;8.00;;;;;21.48;76.51;100082.47;5008351;28;45556;-74
2022/09/02 04:21:00;;;;;;;;;9.00;9.00;;;;;21.48;76.92;100082.47;5018363;28;46064;-74
2022/09/02 04:23:27;;;;;;;;;10.00;8.00;;;;;21.40;76.67;100074.66;5018496;28;45424;-74
2022/09/02 04:25:53;;;;;;;;;8.33;8.33;;;;;21.52;75.99;100090.34;5019069;28;45496;-74
2022/09/02 04:28:19;;;;;;;;;9.00;9.00;;;;;21.41;76.01;100065.78;5016972;28;45518;-75
2022/09/02 04:30:45;;;;;;;;;8.33;8.00;;;;;21.48;75.56;100077.16;5018464;28;45328;-75
2022/09/02 04:33:12;;;;;;;;;8.67;8.00;;;;;21.44;75.50;100065.72;5018302;28;45823;-75
2022/09/02 04:35:42;;;;;;;;;12.33;9.00;;;;;21.48;75.14;100077.16;5016950;28;45572;-73
2022/09/02 04:38:09;;;;;;;;;9.00;8.67;;;;;21.43;75.90;100078.16;5018448;28;45523;-75
2022/09/02 04:40:35;;;;;;;;;8.33;7.67;;;;;20.73;76.20;99971.63;5018335;28;46214;-74
2022/09/02 04:43:00;;;;;;;;;10.00;9.00;;;;;21.21;76.33;100059.13;5018298;28;45455;-74
2022/09/02 04:45:26;;;;;;;;;9.67;8.67;;;;;21.23;76.25;100067.06;5018362;28;45343;-74
2022/09/02 04:47:51;;;;;;;;;9.33;9.33;;;;;21.17;75.68;100046.81;5013637;28;45477;-75
2022/09/02 04:50:17;;;;;;;;;10.00;10.00;;;;;21.11;77.35;100041.63;5008536;28;46398;-75
2022/09/02 04:52:43;;;;;;;;;8.00;7.33;;;;;21.12;77.11;100059.28;5016698;28;45503;-69
2022/09/02 04:55:09;;;;;;;;;8.33;7.67;;;;;21.17;77.11;100062.75;5017064;28;45152;-74
2022/09/02 04:57:35;;;;;;;;;12.67;11.67;;;;;21.11;76.61;100061.97;5018100;28;45274;-75
2022/09/02 05:00:06;;;;;;;;;9.00;9.00;;;;;21.13;76.46;100065.47;5017816;28;46112;-74
2022/09/02 05:02:32;;;;;;;;;8.00;8.00;;;;;21.06;76.37;100051.47;5029518;28;45496;-71
2022/09/02 05:04:57;;;;;;;;;10.00;9.00;;;;;20.98;76.87;100046.31;5017890;28;45310;-72
2022/09/02 05:07:23;;;;;;;;;8.00;7.00;;;;;21.06;76.49;100059.44;5017622;28;45542;-74
2022/09/02 05:09:49;;;;;;;;;9.33;9.33;;;;;20.98;76.57;100064.03;5016290;28;48100;-75
2022/09/02 05:12:14;;;;;;;;;10.67;8.67;;;;;20.35;76.19;99961.72;5015875;28;45532;-72
2022/09/02 05:14:40;;;;;;;;;5.33;4.67;;;;;20.84;76.72;100059.00;5017401;28;45359;-72
2022/09/02 05:17:05;;;;;;;;;10.00;9.00;;;;;20.83;76.44;100057.22;5017907;28;45479;-75
2022/09/02 05:19:31;;;;;;;;;7.67;7.67;;;;;20.90;76.27;100076.59;5017332;28;45561;-75
2022/09/02 05:21:58;;;;;;;;;9.00;8.00;;;;;20.77;76.18;100057.34;5017537;28;45352;-70
2022/09/02 05:24:25;;;;;;;;;7.00;7.00;;;;;20.86;76.08;100078.41;5017296;28;45549;-74
2022/09/02 05:26:50;;;;;;;;;8.00;7.00;;;;;20.85;76.17;100082.00;5017340;28;45394;-74
2022/09/02 05:29:19;;;;;;;;;9.00;8.33;;;;;20.75;76.33;100076.00;5017103;28;45982;-72
2022/09/02 05:31:46;;;;;;;;;9.67;8.67;;;;;20.75;75.84;100083.97;5017086;28;45352;-69
2022/09/02 05:34:13;;;;;;;;;7.00;7.00;;;;;20.74;76.41;100082.19;5002441;28;45438;-75
2022/09/02 05:36:38;;;;;;;;;7.00;6.67;;;;;20.59;76.00;100051.53;5016796;28;45386;-70
2022/09/02 05:39:05;;;;;;;;;9.00;8.00;;;;;20.66;76.01;100066.41;5016372;28;45423;-74
2022/09/02 05:41:31;;;;;;;;;9.00;8.00;;;;;19.86;75.70;99935.25;5016460;28;45446;-69
2022/09/02 05:43:59;;;;;;;;;10.00;9.00;;;;;20.59;76.41;100085.13;5016799;28;45447;-75
2022/09/02 05:46:25;;;;;;;;;8.67;8.00;;;;;19.67;76.95;99939.94;5015828;28;45509;-75
2022/09/02 05:51:54;;;;;;;;;9.00;8.33;;;;;20.45;77.28;100078.28;5014849;28;45465;-75
2022/09/02 05:54:29;;;;;;;;;9.00;8.67;;;;;20.35;76.39;100060.78;5013537;28;45554;-75
2022/09/02 05:56:57;;;;;;;;;8.67;7.67;;;;;20.52;76.73;100084.34;5012726;28;45503;-71
2022/09/02 05:59:25;;;;;;;;;10.00;9.00;;;;;20.59;76.17;100091.34;5014124;28;46142;-69
2022/09/02 06:01:52;;;;;;;;;11.00;10.33;;;;;20.60;76.48;100084.22;5012558;28;45549;-71
2022/09/02 06:04:18;;;;;;;;;8.00;8.00;;;;;20.70;76.05;100091.13;5013938;28;45367;-68
2022/09/02 06:06:44;;;;;;;;;10.67;10.67;;;;;20.72;75.93;100091.97;5015374;28;45459;-69
2022/09/02 06:09:12;;;;;;;;;8.67;8.33;;;;;20.75;75.57;100091.03;5014946;28;45575;-74
2022/09/02 06:11:42;;;;;;;;;11.00;11.00;;;;;20.65;76.13;100069.97;5014768;28;45529;-69
2022/09/02 06:14:08;;;;;;;;;7.00;7.00;;;;;20.65;76.18;100085.00;5015063;28;45607;-74
2022/09/02 06:16:34;;;;;;;;;11.33;10.00;;;;;20.32;75.35;100009.56;5014782;28;45956;-73
2022/09/02 06:19:02;;;;;;;;;8.33;8.33;;;;;20.80;75.92;100089.16;5014850;28;45660;-75
2022/09/02 06:21:28;;;;;;;;;9.67;9.00;;;;;20.97;75.78;100102.09;5017413;28;45640;-74
2022/09/02 06:23:54;;;;;;;;;9.00;8.00;;;;;20.92;75.48;100082.75;5015166;28;45430;-74
2022/09/02 06:26:20;;;;;;;;;10.00;9.00;;;;;21.04;74.94;100096.63;5014374;28;45478;-73
2022/09/02 06:28:46;;;;;;;;;9.00;9.00;;;;;21.09;75.45;100104.53;5014136;28;46348;-72
2022/09/02 06:31:15;;;;;;;;;9.67;9.00;;;;;21.06;75.84;100096.59;5014403;28;45554;-69
2022/09/02 06:33:42;;;;;;;;;8.67;8.33;;;;;21.17;75.41;100104.34;5014485;28;45531;-71
2022/09/02 06:36:10;;;;;;;;;10.67;9.33;;;;;21.19;74.82;100100.78;5017593;28;45475;-72
2022/09/02 06:38:42;;;;;;;;;11.67;10.67;;;;;21.25;74.77;100099.78;5018574;28;45598;-67
2022/09/02 06:41:12;;;;;;;;;9.00;9.00;;;;;21.26;74.79;100091.75;5012651;28;45775;-68
2022/09/02 06:43:37;;;;;;;;;10.00;10.00;;;;;21.20;74.33;100077.72;5013070;28;45413;-69
2022/09/02 06:46:04;;;;;;;;;9.00;8.00;;;;;21.35;75.08;100103.13;5013811;28;45648;-68
2022/09/02 06:48:29;;;;;;;;;8.00;7.00;;;;;21.40;74.39;100103.88;5013260;28;45486;-72
2022/09/02 06:50:55;;;;;;;;;8.00;8.00;;;;;21.23;74.50;100073.22;5013616;28;45539;-71
2022/09/02 06:53:21;;;;;;;;;8.67;8.67;;;;;21.36;74.41;100088.91;5014826;28;45903;-73
2022/09/02 06:55:47;;;;;;;;;7.00;7.00;;;;;21.43;74.32;100102.06;5015136;28;45570;-69
2022/09/02 06:58:14;;;;;;;;;9.00;8.00;;;;;21.52;74.76;100119.56;5014749;28;45552;-68
2022/09/02 07:00:41;;;;;;;;;10.00;8.33;;;;;21.54;74.16;100104.47;5014801;28;45536;-72
2022/09/02 07:06:09;;;;;;;;;9.67;9.00;;;;;21.65;74.03;100112.22;5012795;28;45567;-69
2022/09/02 07:08:37;;;;;;;;;8.33;8.33;;;;;21.63;74.28;100100.75;5019382;28;45473;-70
2022/09/02 07:11:04;;;;;;;;;8.67;8.67;;;;;21.66;74.78;100100.66;5012783;28;45564;-68
2022/09/02 07:13:30;;;;;;;;;11.00;9.33;;;;;21.63;74.54;100082.13;5009333;28;45771;-68
2022/09/02 07:15:56;;;;;;;;;11.00;9.67;;;;;21.50;74.67;100062.94;5005728;28;45426;-71
2022/09/02 07:18:22;;;;;;;;;10.33;10.00;;;;;21.69;74.45;100078.47;5012624;28;45456;-72
2022/09/02 07:20:47;;;;;;;;;8.67;8.67;;;;;21.83;74.31;100084.34;5013593;28;45640;-71
2022/09/02 07:23:14;;;;;;;;;9.33;9.00;;;;;22.01;73.86;100102.50;5013836;28;45458;-71
2022/09/02 07:25:40;;;;;;;;;11.00;11.00;;;;;21.97;74.13;100081.34;5013093;28;45450;-72
2022/09/02 07:28:08;;;;;;;;;11.33;8.67;;;;;22.11;74.00;100092.50;5012546;28;46038;-72
2022/09/02 07:30:34;;;;;;;;;8.67;8.00;;;;;22.25;73.63;100105.50;5012478;28;45733;-69
2022/09/02 07:33:00;;;;;;;;;7.67;7.67;;;;;22.11;72.63;100063.25;5016855;28;45562;-70
2022/09/02 07:35:27;;;;;;;;;9.67;9.00;;;;;22.31;73.02;100094.69;5016590;28;45460;-69
2022/09/02 07:37:52;;;;;;;;;9.00;9.00;;;;;22.16;73.10;100066.69;5018886;28;45595;-68
2022/09/02 07:40:18;;;;;;;;;12.00;10.00;;;;;22.34;72.57;100091.09;5015329;28;45491;-69
2022/09/02 07:42:43;;;;;;;;;10.33;9.67;;;;;22.44;72.95;100108.56;5015572;28;45717;-69
2022/09/02 07:45:10;;;;;;;;;11.00;9.67;;;;;22.50;71.99;100103.09;5013842;28;45583;-72
2022/09/02 07:47:36;;;;;;;;;10.33;8.33;;;;;22.34;72.56;100072.44;5017371;28;45837;-72
2022/09/02 07:50:03;;;;;;;;;8.00;8.00;;;;;22.57;71.80;100103.81;5015127;28;45685;-70
2022/09/02 07:52:29;;;;;;;;;8.00;8.00;;;;;22.61;71.64;100100.13;5023075;28;45531;-72
2022/09/02 07:54:54;;;;;;;;;13.33;10.67;;;;;22.63;71.82;100099.19;5016399;28;45678;-72
2022/09/02 07:57:20;;;;;;;;;9.67;8.67;;;;;22.75;71.52;100103.28;5016404;28;47110;-72
2022/09/02 07:59:46;;;;;;;;;9.00;8.33;;;;;22.84;70.83;100088.88;5016163;28;45319;-68
2022/09/02 08:02:13;;;;;;;;;9.67;8.67;;;;;23.05;71.12;100107.84;5017335;28;45652;-72
2022/09/02 08:04:39;;;;;;;;;9.67;9.33;;;;;23.23;70.82;100120.63;5017423;28;45433;-71
2022/09/02 08:07:05;;;;;;;;;8.33;8.33;;;;;23.34;70.51;100131.00;5016720;28;46348;-70
2022/09/02 08:09:31;;;;;;;;;9.67;8.33;;;;;23.38;70.20;100119.34;5015312;28;45576;-71
2022/09/02 08:11:56;;;;;;;;;9.67;9.00;;;;;23.53;69.64;100134.84;5011604;28;45423;-70
2022/09/02 08:14:26;;;;;;;;;8.00;7.67;;;;;23.64;69.59;100126.53;5016399;28;45413;-70
2022/09/02 08:16:53;;;;;;;;;8.33;8.33;;;;;23.78;69.39;100135.00;5014304;28;48015;-72
2022/09/02 08:19:20;;;;;;;;;8.33;8.00;;;;;23.90;68.92;100132.91;5030066;28;45448;-68
2022/09/02 08:21:45;;;;;;;;;9.33;9.33;;;;;24.02;68.12;100121.81;5015869;28;45454;-67
2022/09/02 08:24:11;;;;;;;;;7.00;7.00;;;;;24.05;68.33;100118.19;5015547;28;45688;-68
2022/09/02 08:26:37;;;;;;;;;8.67;8.00;;;;;24.14;68.14;100116.06;5013370;28;45473;-68
2022/09/02 08:29:07;;;;;;;;;12.00;10.00;;;;;24.27;67.49;100123.69;5013791;28;45637;-72
2022/09/02 08:31:35;;;;;;;;;12.00;8.00;;;;;24.25;68.07;100113.03;5014072;28;45456;-72
2022/09/02 08:34:01;;;;;;;;;9.67;9.00;;;;;24.30;67.54;100132.47;5016209;28;45435;-71
2022/09/02 08:36:27;;;;;;;;;8.00;7.67;;;;;24.34;68.17;100127.91;5019819;28;45530;-72
2022/09/02 08:38:54;;;;;;;;;8.00;8.00;;;;;24.51;67.60;100119.34;5017463;28;45378;-72
2022/09/02 08:41:26;;;;;;;;;9.00;9.00;;;;;24.82;66.49;100097.75;5016381;28;45414;-73
2022/09/02 08:43:57;;;;;;;;;10.33;8.00;;;;;25.47;65.34;100143.53;5016062;28;45797;-71
2022/09/02 08:46:27;;;;;;;;;8.00;8.00;;;;;25.74;61.52;100144.25;5011839;28;45934;-71
2022/09/02 08:48:58;;;;;;;;;9.67;9.00;;;;;25.92;60.88;100127.50;5018494;28;45448;-74
2022/09/02 08:51:36;;;;;;;;;9.00;8.33;;;;;26.07;59.12;100107.28;5014607;28;45431;-74
2022/09/02 08:54:12;;;;;;;;;5.67;5.67;;;;;26.73;57.91;100127.75;5020738;28;45439;-69
2022/09/02 08:56:38;;;;;;;;;6.00;5.33;;;;;26.92;56.80;100111.75;5017319;28;45727;-68
2022/09/02 08:59:05;;;;;;;;;8.00;7.00;;;;;27.20;56.94;100108.69;5016654;28;45589;-68
2022/09/02 09:01:44;;;;;;;;;8.00;8.00;;;;;27.63;55.36;100130.81;5017693;28;45467;-68
2022/09/02 09:04:23;;;;;;;;;9.00;8.00;;;;;27.92;53.43;100132.16;5015575;28;45570;-68
2022/09/02 09:07:06;;;;;;;;;7.00;6.00;;;;;28.07;53.56;100133.22;5017367;28;45550;-68
2022/09/02 09:09:43;;;;;;;;;8.00;7.00;;;;;28.00;53.93;100137.16;5017285;28;45377;-68
2022/09/02 09:12:22;;;;;;;;;8.33;7.33;;;;;27.70;53.94;100137.66;5016899;28;45509;-68
2022/09/02 09:14:47;;;;;;;;;7.33;7.00;;;;;27.41;54.72;100151.56;5017505;28;45526;-71
2022/09/02 09:17:58;;;;;;;;;6.67;6.33;;;;;26.98;56.31;100151.66;5016738;28;46132;-68
2022/09/02 09:20:30;;;;;;;;;7.67;7.67;;;;;26.53;57.91;100136.63;5014917;28;45420;-68
2022/09/02 09:22:59;;;;;;;;;7.00;7.00;;;;;26.15;58.61;100134.59;5016895;28;45477;-70
2022/09/02 09:25:29;;;;;;;;;6.33;6.00;;;;;25.94;60.09;100155.09;5017071;28;45878;-68
2022/09/02 09:27:59;;;;;;;;;6.00;6.00;;;;;25.74;60.25;100161.16;5016231;28;45643;-74
2022/09/02 09:30:26;;;;;;;;;6.67;6.67;;;;;25.54;60.56;100148.56;5016730;28;45518;-68
2022/09/02 09:32:53;;;;;;;;;6.67;6.67;;;;;25.21;61.71;100134.66;5015563;28;45415;-68
2022/09/02 09:35:20;;;;;;;;;5.33;5.33;;;;;25.06;62.08;100159.28;5016904;28;47734;-68
2022/09/02 09:37:48;;;;;;;;;4.67;4.67;;;;;24.94;62.22;100155.22;5016457;28;45605;-68
2022/09/02 09:40:37;;;;;;;;;7.00;6.00;;;;;24.84;62.99;100156.50;5015736;28;45546;-72
2022/09/02 09:43:04;;;;;;;;;6.00;5.00;;;;;24.77;62.96;100156.72;5016788;28;45401;-70
2022/09/02 09:45:38;;;;;;;;;6.67;6.67;;;;;24.65;63.06;100146.47;5016576;28;45482;-68
2022/09/02 09:48:15;;;;;;;;;6.00;6.00;;;;;24.75;62.46;100149.66;5016261;28;46658;-72
2022/09/02 09:50:46;;;;;;;;;5.00;4.33;;;;;24.78;62.04;100155.75;5005383;28;45489;-68
2022/09/02 09:53:23;;;;;;;;;4.00;4.00;;;;;24.84;61.62;100154.69;5031532;28;45424;-74
2022/09/02 09:56:09;;;;;;;;;3.67;3.67;;;;;24.87;61.79;100159.94;5016189;28;45707;-68
2022/09/02 09:58:35;;;;;;;;;4.00;4.00;;;;;24.91;61.66;100166.00;5005964;28;46681;-71
2022/09/02 10:01:22;;;;;;;;;4.00;4.00;;;;;24.93;61.67;100157.03;5016210;28;45439;-68
2022/09/02 10:03:54;;;;;;;;;4.00;4.00;;;;;24.97;61.66;100149.78;5016886;28;45512;-68
2022/09/02 10:06:43;;;;;;;;;5.00;4.00;;;;;25.07;61.33;100150.31;5015523;28;45475;-68
2022/09/02 10:09:17;;;;;;;;;3.00;3.00;;;;;25.26;60.77;100151.41;5015232;28;46106;-68
2022/09/02 10:12:12;;;;;;;;;3.00;3.00;;;;;25.49;59.84;100150.56;5015795;28;45447;-73
2022/09/02 10:14:44;;;;;;;;;5.00;4.00;;;;;25.64;59.13;100150.91;5007311;28;45303;-70
2022/09/02 10:17:19;;;;;;;;;5.67;4.00;;;;;25.73;59.38;100148.75;5015864;28;45620;-69
2022/09/02 10:20:42;;;;;;;;;4.00;4.00;;;;;25.86;58.97;100149.13;5015099;28;46018;-68
2022/09/02 10:23:42;;;;;;;;;3.33;3.00;;;;;26.13;58.26;100132.94;4973607;28;45626;-70
2022/09/02 10:26:39;;;;;;;;;5.00;4.00;;;;;26.63;57.39;100143.34;4957699;28;45600;-73
2022/09/02 10:29:22;;;;;;;;;4.00;4.00;;;;;26.87;55.86;100143.22;5012674;28;45360;-68
2022/09/02 10:31:50;;;;;;;;;7.00;5.67;;;;;26.92;55.20;100141.22;5015179;28;46143;-68
2022/09/02 10:34:41;;;;;;;;;0.00;0.00;;;;;27.14;55.81;100139.31;5015848;28;45407;-72
2022/09/02 10:37:19;;;;;;;;;4.67;4.67;;;;;27.43;55.26;100134.44;5002370;28;45411;-75
2022/09/02 10:40:09;;;;;;;;;7.00;6.67;;;;;27.89;54.15;100131.41;5015649;28;45506;-72
2022/09/02 10:42:43;;;;;;;;;8.00;8.00;;;;;28.04;52.98;100089.53;5001150;28;46143;-68
2022/09/02 10:45:21;;;;;;;;;4.33;4.00;;;;;28.47;52.89;100112.41;5031280;28;45454;-70
2022/09/02 10:48:04;;;;;;;;;6.00;6.00;;;;;28.62;51.65;100110.78;5015572;28;45388;-69
2022/09/02 10:50:48;;;;;;;;;5.00;4.67;;;;;29.52;50.99;100105.03;5015716;28;45784;-68
2022/09/02 10:53:35;;;;;;;;;4.00;4.00;;;;;29.78;50.76;100075.81;5013307;28;45778;-73
2022/09/02 10:56:05;;;;;;;;;5.33;5.33;;;;;30.33;49.20;100104.09;5015184;28;45519;-68
2022/09/02 10:58:36;;;;;;;;;6.00;5.00;;;;;31.02;45.88;100102.63;5014917;28;45505;-68
2022/09/02 11:01:04;;;;;;;;;9.00;9.00;;;;;30.94;45.98;100024.03;5013666;28;45678;-69
2022/09/02 11:03:48;;;;;;;;;6.00;6.00;;;;;31.36;45.04;100089.69;5012757;28;47728;-70
2022/09/02 11:06:22;;;;;;;;;6.00;5.00;;;;;31.68;45.10;100100.28;5015631;28;45543;-72
2022/09/02 11:08:53;;;;;;;;;5.00;5.00;;;;;31.84;45.49;100078.53;5018299;28;45471;-74
2022/09/02 11:11:30;;;;;;;;;3.33;3.33;;;;;31.75;45.70;100096.19;5019025;28;45242;-70
2022/09/02 11:14:14;;;;;;;;;14.00;13.67;;;;;31.28;45.93;100100.13;5017188;28;45566;-67
2022/09/02 11:16:40;;;;;;;;;2.67;2.67;;;;;30.76;45.79;100092.53;5016166;28;45297;-67
2022/09/02 11:19:38;;;;;;;;;1.00;1.00;;;;;30.30;46.54;100099.75;5017740;28;45588;-68
2022/09/02 11:22:39;;;;;;;;;1.33;1.33;;;;;29.91;47.29;100082.25;5018543;28;45277;-68
2022/09/02 11:25:29;;;;;;;;;2.00;1.00;;;;;29.76;47.59;100087.63;5006682;28;45440;-73
2022/09/02 11:28:23;;;;;;;;;1.00;1.00;;;;;29.62;48.10;100093.78;5016311;28;45523;-70
2022/09/02 11:30:57;;;;;;;;;1.67;1.67;;;;;29.57;48.13;100083.28;5021089;28;45617;-68
2022/09/02 11:33:32;;;;;;;;;1.67;1.00;;;;;29.52;48.18;100088.91;5017144;28;45434;-68
2022/09/02 11:35:58;;;;;;;;;8.00;7.67;;;;;29.15;48.71;100082.03;5017803;28;45931;-67
2022/09/02 11:38:33;;;;;;;;;10.00;9.33;;;;;29.04;49.60;100087.94;5013271;28;45446;-68
2022/09/02 11:41:25;;;;;;;;;1.00;1.00;;;;;28.99;50.33;100087.34;5002441;28;45490;-68